Ferry Fukuoka2 — JI3703 — position and weather

sailwx.info

Track history (hours):
 
Tides and Currents Weather Stations Pressure Air Temp Water Temp Dewpoint Dewpoint Depression Visibility Wind Speed Wind Dir Waves Ship Positions

Ferry Fukuoka2

Last reported at 2017-Sep-21 09:41 UTC. Time now 2017-Sep-21 17:45 UTC.
Position N 34°34' E 134°49'.

Length 167 m; draft 5.7 m.

Type: Passenger vessel. MMSI: 431301648.

Date/timePositionNaut miles runAvg speedWind from/ knotsBaromVisibWave heightAir tempDewpointWater temp
2017-Sep-21 09:41N 34°34' E 134°49'423.1
2017-Sep-21 09:30N 34°35' E 134°53'1020.5
2017-Sep-21 09:00N 34°36' E 135°06'1021.0
2017-Sep-21 08:31N 34°36' E 135°18'611.1
2017-Sep-21 07:57N 34°37' E 135°26'0 0.0
2017-Sep-21 07:27N 34°37' E 135°26'0 0.0
2017-Sep-21 06:45N 34°37' E 135°26'0 0.0
2017-Sep-21 06:27N 34°37' E 135°26'0 0.0
2017-Sep-21 05:51N 34°37' E 135°26'0 0.0
2017-Sep-21 05:15N 34°37' E 135°26'0 0.0
2017-Sep-21 04:51N 34°37' E 135°26'0 0.0
2017-Sep-21 04:27N 34°37' E 135°26'0 0.0
2017-Sep-21 03:51N 34°37' E 135°26'0 0.0
2017-Sep-21 03:27N 34°37' E 135°26'0 0.0
2017-Sep-21 02:57N 34°37' E 135°26'0 0.0
2017-Sep-21 02:27N 34°37' E 135°26'0 0.0
2017-Sep-21 01:51N 34°37' E 135°26'0 0.0
2017-Sep-21 01:27N 34°37' E 135°26'0 0.0
2017-Sep-21 00:57N 34°37' E 135°26'0 0.0
2017-Sep-21 00:27N 34°37' E 135°26'0 0.0
2017-Sep-20 23:57N 34°37' E 135°26'0 0.0
2017-Sep-20 23:27N 34°37' E 135°26'0 0.0
2017-Sep-20 22:51N 34°37' E 135°26'0 0.0
2017-Sep-20 22:21N 34°37' E 135°26'0 0.0
2017-Sep-20 21:51N 34°37' E 135°26'0 0.0
2017-Sep-20 21:27N 34°37' E 135°26'0 0.0
2017-Sep-20 20:57N 34°37' E 135°26'0 0.0
2017-Sep-20 20:30N 34°37' E 135°26'3 5.2
2017-Sep-20 20:00N 34°38' E 135°23'612.4
2017-Sep-20 19:30N 34°36' E 135°16'714.7
2017-Sep-20 19:00N 34°35' E 135°07'1020.2
2017-Sep-20 18:30N 34°35' E 134°55'7 0.2
2017-Sep-19 09:43N 34°34' E 134°47'524.7
2017-Sep-19 09:30N 34°36' E 134°53'1122.4
2017-Sep-19 09:00N 34°36' E 135°06'1020.7
2017-Sep-19 08:30N 34°37' E 135°19'6 9.0
2017-Sep-19 07:51N 34°37' E 135°26'0 0.0
2017-Sep-19 07:27N 34°37' E 135°26'0 0.0
2017-Sep-19 06:51N 34°37' E 135°26'0 0.0
2017-Sep-19 06:21N 34°37' E 135°26'0 0.0
2017-Sep-19 05:51N 34°37' E 135°26'0 0.0
2017-Sep-19 05:27N 34°37' E 135°26'0 0.0
2017-Sep-19 04:57N 34°37' E 135°26'0 0.0
2017-Sep-19 04:21N 34°37' E 135°26'0 0.0
2017-Sep-19 03:57N 34°37' E 135°26'0 0.0
2017-Sep-19 03:27N 34°37' E 135°26'0 0.0
2017-Sep-19 02:57N 34°37' E 135°26'0 0.0
2017-Sep-19 02:27N 34°37' E 135°26'0 0.0
2017-Sep-19 01:57N 34°37' E 135°26'0 0.0
2017-Sep-19 01:27N 34°37' E 135°26'0 0.0
2017-Sep-19 00:57N 34°37' E 135°26'0 0.0
2017-Sep-19 00:27N 34°37' E 135°26'0 0.0
2017-Sep-18 23:51N 34°37' E 135°26'0 0.0
2017-Sep-18 23:27N 34°37' E 135°26'0 0.0
2017-Sep-18 22:57N 34°37' E 135°26'0 0.0
2017-Sep-18 22:21N 34°37' E 135°26'0 0.0
2017-Sep-18 21:57N 34°37' E 135°26'0 0.0
2017-Sep-18 21:21N 34°37' E 135°26'0 0.0
2017-Sep-18 20:51N 34°37' E 135°26'0 0.0
2017-Sep-18 20:30N 34°37' E 135°26'3 5.1
2017-Sep-18 20:00N 34°38' E 135°23'713.1
2017-Sep-18 19:30N 34°35' E 135°15'714.8
2017-Sep-18 19:00N 34°34' E 135°07'1019.2
2017-Sep-18 18:30N 34°35' E 134°55'7 0.2
2017-Sep-17 01:11N 34°33' E 134°46'622.8
2017-Sep-17 00:55N 34°35' E 134°53'920.9
2017-Sep-17 00:30N 34°36' E 135°03'1122.6
2017-Sep-17 00:00N 34°36' E 135°17'713.9
2017-Sep-16 23:30N 34°37' E 135°26'0 0.3
2017-Sep-16 22:59N 34°37' E 135°26'0 0.0
2017-Sep-16 22:29N 34°37' E 135°26'0 0.0
2017-Sep-16 21:59N 34°37' E 135°26'0 0.0
2017-Sep-16 21:29N 34°37' E 135°26'0 0.0
2017-Sep-16 20:59N 34°37' E 135°26'0 0.0
2017-Sep-16 20:30N 34°37' E 135°26'1 2.2
2017-Sep-16 20:00N 34°37' E 135°25'816.1
2017-Sep-16 19:30N 34°35' E 135°15'1020.5
2017-Sep-16 19:00N 34°36' E 135°03'1019.4
2017-Sep-16 18:29N 34°34' E 134°51'2 0.0
2017-Sep-15 09:41N 34°34' E 134°49'422.9
2017-Sep-15 09:31N 34°36' E 134°53'1121.1
2017-Sep-15 09:00N 34°36' E 135°06'1121.2
2017-Sep-15 08:30N 34°37' E 135°19'6 7.0
2017-Sep-15 07:42N 34°37' E 135°26'0 0.0
2017-Sep-15 07:24N 34°37' E 135°26'0 0.0
2017-Sep-15 07:00N 34°37' E 135°26'0 0.0
2017-Sep-15 06:30N 34°37' E 135°26'0 0.0
2017-Sep-15 06:00N 34°37' E 135°26'0 0.0
2017-Sep-15 05:30N 34°37' E 135°26'0 0.0
2017-Sep-15 05:00N 34°37' E 135°26'0 0.0
2017-Sep-15 04:30N 34°37' E 135°26'0 0.0
2017-Sep-15 04:00N 34°37' E 135°26'0 0.0
2017-Sep-15 03:30N 34°37' E 135°26'0 0.0
2017-Sep-15 03:00N 34°37' E 135°26'0 0.0
2017-Sep-15 02:30N 34°37' E 135°26'0 0.0
2017-Sep-15 02:00N 34°37' E 135°26'0 0.0
2017-Sep-15 01:24N 34°37' E 135°26'0 0.0
2017-Sep-15 00:54N 34°37' E 135°26'0 0.0
2017-Sep-15 00:30N 34°37' E 135°26'0 0.0
2017-Sep-15 00:00N 34°37' E 135°26'0 0.0
2017-Sep-14 23:24N 34°37' E 135°26'0 0.0
2017-Sep-14 23:00N 34°37' E 135°26'0 0.0
2017-Sep-14 22:30N 34°37' E 135°26'0 0.0
2017-Sep-14 22:00N 34°37' E 135°26'0 0.0
2017-Sep-14 21:30N 34°37' E 135°26'0 0.0
2017-Sep-14 20:54N 34°37' E 135°26'0 0.0
2017-Sep-14 20:31N 34°37' E 135°26'5 9.3
2017-Sep-14 20:00N 34°36' E 135°20'1020.6
2017-Sep-14 19:31N 34°35' E 135°08'1020.2
2017-Sep-14 19:01N 34°36' E 134°56'6 0.2
2017-Sep-13 09:46N 34°35' E 134°49'620.5
2017-Sep-13 09:30N 34°36' E 134°55'1019.4
2017-Sep-13 09:00N 34°36' E 135°06'1020.6
2017-Sep-13 08:31N 34°37' E 135°19'6 7.4
2017-Sep-13 07:44N 34°37' E 135°26'0 0.0
2017-Sep-13 07:26N 34°37' E 135°26'0 0.0
2017-Sep-13 06:50N 34°37' E 135°26'0 0.0
2017-Sep-13 06:20N 34°37' E 135°26'0 0.0
2017-Sep-13 05:50N 34°37' E 135°26'0 0.0
2017-Sep-13 05:26N 34°37' E 135°26'0 0.0
2017-Sep-13 04:50N 34°37' E 135°26'0 0.0
2017-Sep-13 04:20N 34°37' E 135°26'0 0.0
2017-Sep-13 03:56N 34°37' E 135°26'0 0.0
2017-Sep-13 03:20N 34°37' E 135°26'0 0.0
2017-Sep-13 02:56N 34°37' E 135°26'0 0.0
2017-Sep-13 02:20N 34°37' E 135°26'0 0.0
2017-Sep-13 01:56N 34°37' E 135°26'0 0.0
2017-Sep-13 01:26N 34°37' E 135°26'0 0.0
2017-Sep-13 00:56N 34°37' E 135°26'0 0.0
2017-Sep-13 00:26N 34°37' E 135°26'0 0.0
2017-Sep-12 23:38N 34°37' E 135°26'0 0.0
2017-Sep-12 23:26N 34°37' E 135°26'0 0.0
2017-Sep-12 22:56N 34°37' E 135°26'0 0.0
2017-Sep-12 22:14N 34°37' E 135°26'0 0.0
2017-Sep-12 21:56N 34°37' E 135°26'0 0.0
2017-Sep-12 21:26N 34°37' E 135°26'0 0.0
2017-Sep-12 20:56N 34°37' E 135°26'0 0.0
2017-Sep-12 20:29N 34°37' E 135°26'3 6.0
2017-Sep-12 20:00N 34°38' E 135°22'917.5
2017-Sep-12 19:30N 34°35' E 135°13'1019.1
2017-Sep-12 19:00N 34°37' E 135°01'1121.0
2017-Sep-12 18:28N 34°32' E 134°48'1 0.0
2017-Sep-11 09:52N 34°34' E 134°49'  
Track history (hours):
 
Tides and Currents Weather Stations Pressure Air Temp Water Temp Dewpoint Dewpoint Depression Visibility Wind Speed Wind Dir Waves Ship Positions

Ferry Fukuoka2

Last reported at 2017-Sep-21 09:41 UTC. Time now 2017-Sep-21 17:45 UTC.
Position N 34°34' E 134°49'.

Length 167 m; draft 5.7 m.

Type: Passenger vessel. MMSI: 431301648.

Date/timePositionNaut miles runAvg speedWind from/ knotsBaromVisibWave heightAir tempDewpointWater temp
2017-Sep-21 09:41N 34°34' E 134°49'423.1
2017-Sep-21 09:30N 34°35' E 134°53'1020.5
2017-Sep-21 09:00N 34°36' E 135°06'1021.0
2017-Sep-21 08:31N 34°36' E 135°18'611.1
2017-Sep-21 07:57N 34°37' E 135°26'0 0.0
2017-Sep-21 07:27N 34°37' E 135°26'0 0.0
2017-Sep-21 06:45N 34°37' E 135°26'0 0.0
2017-Sep-21 06:27N 34°37' E 135°26'0 0.0
2017-Sep-21 05:51N 34°37' E 135°26'0 0.0
2017-Sep-21 05:15N 34°37' E 135°26'0 0.0
2017-Sep-21 04:51N 34°37' E 135°26'0 0.0
2017-Sep-21 04:27N 34°37' E 135°26'0 0.0
2017-Sep-21 03:51N 34°37' E 135°26'0 0.0
2017-Sep-21 03:27N 34°37' E 135°26'0 0.0
2017-Sep-21 02:57N 34°37' E 135°26'0 0.0
2017-Sep-21 02:27N 34°37' E 135°26'0 0.0
2017-Sep-21 01:51N 34°37' E 135°26'0 0.0
2017-Sep-21 01:27N 34°37' E 135°26'0 0.0
2017-Sep-21 00:57N 34°37' E 135°26'0 0.0
2017-Sep-21 00:27N 34°37' E 135°26'0 0.0
2017-Sep-20 23:57N 34°37' E 135°26'0 0.0
2017-Sep-20 23:27N 34°37' E 135°26'0 0.0
2017-Sep-20 22:51N 34°37' E 135°26'0 0.0
2017-Sep-20 22:21N 34°37' E 135°26'0 0.0
2017-Sep-20 21:51N 34°37' E 135°26'0 0.0
2017-Sep-20 21:27N 34°37' E 135°26'0 0.0
2017-Sep-20 20:57N 34°37' E 135°26'0 0.0
2017-Sep-20 20:30N 34°37' E 135°26'3 5.2
2017-Sep-20 20:00N 34°38' E 135°23'612.4
2017-Sep-20 19:30N 34°36' E 135°16'714.7
2017-Sep-20 19:00N 34°35' E 135°07'1020.2
2017-Sep-20 18:30N 34°35' E 134°55'7 0.2
2017-Sep-19 09:43N 34°34' E 134°47'524.7
2017-Sep-19 09:30N 34°36' E 134°53'1122.4
2017-Sep-19 09:00N 34°36' E 135°06'1020.7
2017-Sep-19 08:30N 34°37' E 135°19'6 9.0
2017-Sep-19 07:51N 34°37' E 135°26'0 0.0
2017-Sep-19 07:27N 34°37' E 135°26'0 0.0
2017-Sep-19 06:51N 34°37' E 135°26'0 0.0
2017-Sep-19 06:21N 34°37' E 135°26'0 0.0
2017-Sep-19 05:51N 34°37' E 135°26'0 0.0
2017-Sep-19 05:27N 34°37' E 135°26'0 0.0
2017-Sep-19 04:57N 34°37' E 135°26'0 0.0
2017-Sep-19 04:21N 34°37' E 135°26'0 0.0
2017-Sep-19 03:57N 34°37' E 135°26'0 0.0
2017-Sep-19 03:27N 34°37' E 135°26'0 0.0
2017-Sep-19 02:57N 34°37' E 135°26'0 0.0
2017-Sep-19 02:27N 34°37' E 135°26'0 0.0
2017-Sep-19 01:57N 34°37' E 135°26'0 0.0
2017-Sep-19 01:27N 34°37' E 135°26'0 0.0
2017-Sep-19 00:57N 34°37' E 135°26'0 0.0
2017-Sep-19 00:27N 34°37' E 135°26'0 0.0
2017-Sep-18 23:51N 34°37' E 135°26'0 0.0
2017-Sep-18 23:27N 34°37' E 135°26'0 0.0
2017-Sep-18 22:57N 34°37' E 135°26'0 0.0
2017-Sep-18 22:21N 34°37' E 135°26'0 0.0
2017-Sep-18 21:57N 34°37' E 135°26'0 0.0
2017-Sep-18 21:21N 34°37' E 135°26'0 0.0
2017-Sep-18 20:51N 34°37' E 135°26'0 0.0
2017-Sep-18 20:30N 34°37' E 135°26'3 5.1
2017-Sep-18 20:00N 34°38' E 135°23'713.1
2017-Sep-18 19:30N 34°35' E 135°15'714.8
2017-Sep-18 19:00N 34°34' E 135°07'1019.2
2017-Sep-18 18:30N 34°35' E 134°55'7 0.2
2017-Sep-17 01:11N 34°33' E 134°46'622.8
2017-Sep-17 00:55N 34°35' E 134°53'920.9
2017-Sep-17 00:30N 34°36' E 135°03'1122.6
2017-Sep-17 00:00N 34°36' E 135°17'713.9
2017-Sep-16 23:30N 34°37' E 135°26'0 0.3
2017-Sep-16 22:59N 34°37' E 135°26'0 0.0
2017-Sep-16 22:29N 34°37' E 135°26'0 0.0
2017-Sep-16 21:59N 34°37' E 135°26'0 0.0
2017-Sep-16 21:29N 34°37' E 135°26'0 0.0
2017-Sep-16 20:59N 34°37' E 135°26'0 0.0
2017-Sep-16 20:30N 34°37' E 135°26'1 2.2
2017-Sep-16 20:00N 34°37' E 135°25'816.1
2017-Sep-16 19:30N 34°35' E 135°15'1020.5
2017-Sep-16 19:00N 34°36' E 135°03'1019.4
2017-Sep-16 18:29N 34°34' E 134°51'2 0.0
2017-Sep-15 09:41N 34°34' E 134°49'422.9
2017-Sep-15 09:31N 34°36' E 134°53'1121.1
2017-Sep-15 09:00N 34°36' E 135°06'1121.2
2017-Sep-15 08:30N 34°37' E 135°19'6 7.0
2017-Sep-15 07:42N 34°37' E 135°26'0 0.0
2017-Sep-15 07:24N 34°37' E 135°26'0 0.0
2017-Sep-15 07:00N 34°37' E 135°26'0 0.0
2017-Sep-15 06:30N 34°37' E 135°26'0 0.0
2017-Sep-15 06:00N 34°37' E 135°26'0 0.0
2017-Sep-15 05:30N 34°37' E 135°26'0 0.0
2017-Sep-15 05:00N 34°37' E 135°26'0 0.0
2017-Sep-15 04:30N 34°37' E 135°26'0 0.0
2017-Sep-15 04:00N 34°37' E 135°26'0 0.0
2017-Sep-15 03:30N 34°37' E 135°26'0 0.0
2017-Sep-15 03:00N 34°37' E 135°26'0 0.0
2017-Sep-15 02:30N 34°37' E 135°26'0 0.0
2017-Sep-15 02:00N 34°37' E 135°26'0 0.0
2017-Sep-15 01:24N 34°37' E 135°26'0 0.0
2017-Sep-15 00:54N 34°37' E 135°26'0 0.0
2017-Sep-15 00:30N 34°37' E 135°26'0 0.0
2017-Sep-15 00:00N 34°37' E 135°26'0 0.0
2017-Sep-14 23:24N 34°37' E 135°26'0 0.0
2017-Sep-14 23:00N 34°37' E 135°26'0 0.0
2017-Sep-14 22:30N 34°37' E 135°26'0 0.0
2017-Sep-14 22:00N 34°37' E 135°26'0 0.0
2017-Sep-14 21:30N 34°37' E 135°26'0 0.0
2017-Sep-14 20:54N 34°37' E 135°26'0 0.0
2017-Sep-14 20:31N 34°37' E 135°26'5 9.3
2017-Sep-14 20:00N 34°36' E 135°20'1020.6
2017-Sep-14 19:31N 34°35' E 135°08'1020.2
2017-Sep-14 19:01N 34°36' E 134°56'6 0.2
2017-Sep-13 09:46N 34°35' E 134°49'620.5
2017-Sep-13 09:30N 34°36' E 134°55'1019.4
2017-Sep-13 09:00N 34°36' E 135°06'1020.6
2017-Sep-13 08:31N 34°37' E 135°19'6 7.4
2017-Sep-13 07:44N 34°37' E 135°26'0 0.0
2017-Sep-13 07:26N 34°37' E 135°26'0 0.0
2017-Sep-13 06:50N 34°37' E 135°26'0 0.0
2017-Sep-13 06:20N 34°37' E 135°26'0 0.0
2017-Sep-13 05:50N 34°37' E 135°26'0 0.0
2017-Sep-13 05:26N 34°37' E 135°26'0 0.0
2017-Sep-13 04:50N 34°37' E 135°26'0 0.0
2017-Sep-13 04:20N 34°37' E 135°26'0 0.0
2017-Sep-13 03:56N 34°37' E 135°26'0 0.0
2017-Sep-13 03:20N 34°37' E 135°26'0 0.0
2017-Sep-13 02:56N 34°37' E 135°26'0 0.0
2017-Sep-13 02:20N 34°37' E 135°26'0 0.0
2017-Sep-13 01:56N 34°37' E 135°26'0 0.0
2017-Sep-13 01:26N 34°37' E 135°26'0 0.0
2017-Sep-13 00:56N 34°37' E 135°26'0 0.0
2017-Sep-13 00:26N 34°37' E 135°26'0 0.0
2017-Sep-12 23:38N 34°37' E 135°26'0 0.0
2017-Sep-12 23:26N 34°37' E 135°26'0 0.0
2017-Sep-12 22:56N 34°37' E 135°26'0 0.0
2017-Sep-12 22:14N 34°37' E 135°26'0 0.0
2017-Sep-12 21:56N 34°37' E 135°26'0 0.0
2017-Sep-12 21:26N 34°37' E 135°26'0 0.0
2017-Sep-12 20:56N 34°37' E 135°26'0 0.0
2017-Sep-12 20:29N 34°37' E 135°26'3 6.0
2017-Sep-12 20:00N 34°38' E 135°22'917.5
2017-Sep-12 19:30N 34°35' E 135°13'1019.1
2017-Sep-12 19:00N 34°37' E 135°01'1121.0
2017-Sep-12 18:28N 34°32' E 134°48'1 0.0
2017-Sep-11 09:52N 34°34' E 134°49'  

Dump ship's entire track history